createdAt,value
2018-05-13T00:01:16.029Z,9.50
2018-05-13T00:03:43.575Z,8.70
2018-05-13T00:06:11.877Z,9.83
2018-05-13T00:08:39.416Z,9.30
2018-05-13T00:11:06.958Z,9.20
2018-05-13T00:13:34.469Z,9.50
2018-05-13T00:16:02.044Z,11.00
2018-05-13T00:18:29.545Z,10.57
2018-05-13T00:20:58.137Z,9.93
2018-05-13T00:23:25.683Z,10.50
2018-05-13T00:25:53.968Z,8.83
2018-05-13T00:28:22.238Z,8.23
2018-05-13T00:30:50.494Z,9.00
2018-05-13T00:33:18.762Z,10.43
2018-05-13T00:35:46.317Z,9.63
2018-05-13T00:38:13.793Z,9.50
2018-05-13T00:40:41.571Z,9.53
2018-05-13T00:43:09.940Z,9.20
2018-05-13T00:45:38.205Z,9.70
2018-05-13T00:48:05.712Z,8.80
2018-05-13T00:50:33.249Z,9.03
2018-05-13T00:53:00.692Z,8.97
2018-05-13T00:55:28.965Z,9.40
2018-05-13T00:57:57.241Z,9.40
2018-05-13T01:00:25.536Z,8.73
2018-05-13T01:02:53.126Z,9.07
2018-05-13T01:05:21.324Z,10.43
2018-05-13T01:07:48.832Z,9.60
2018-05-13T01:10:16.376Z,10.00
2018-05-13T01:12:44.720Z,10.50
2018-05-13T01:15:12.311Z,10.70
2018-05-13T01:17:40.724Z,10.83
2018-05-13T01:20:08.220Z,10.47
2018-05-13T01:22:35.800Z,11.13
2018-05-13T01:25:04.114Z,13.20
2018-05-13T01:27:31.628Z,11.37
2018-05-13T01:30:00.022Z,12.00
2018-05-13T01:32:27.540Z,11.80
2018-05-13T01:34:55.037Z,10.10
2018-05-13T01:37:23.297Z,9.93
2018-05-13T01:39:51.593Z,10.10
2018-05-13T01:42:19.146Z,9.43
2018-05-13T01:44:47.419Z,9.90
2018-05-13T01:47:15.805Z,10.10
2018-05-13T01:49:43.336Z,8.93
2018-05-13T01:52:11.610Z,8.97
2018-05-13T01:54:39.486Z,9.30
2018-05-13T01:57:07.737Z,9.67
2018-05-13T01:59:36.216Z,9.87
2018-05-13T02:02:03.813Z,9.20
2018-05-13T02:04:32.069Z,8.80
2018-05-13T02:07:00.345Z,9.50
2018-05-13T02:09:27.922Z,8.53
2018-05-13T02:11:56.178Z,9.30
2018-05-13T02:14:23.672Z,9.80
2018-05-13T02:16:51.466Z,8.63
2018-05-13T02:19:19.171Z,9.70
2018-05-13T02:21:47.426Z,8.27
2018-05-13T02:24:14.936Z,8.60
2018-05-13T02:26:42.466Z,8.17
2018-05-13T02:29:10.722Z,8.67
2018-05-13T02:31:38.228Z,8.93
2018-05-13T02:34:05.729Z,8.20
2018-05-13T02:36:33.229Z,8.23
2018-05-13T02:39:06.115Z,8.10
2018-05-13T02:41:34.500Z,8.93
2018-05-13T02:44:02.026Z,10.50
2018-05-13T02:46:29.547Z,8.70
2018-05-13T02:48:57.056Z,9.53
2018-05-13T02:51:25.342Z,8.13
2018-05-13T02:53:54.519Z,9.00
2018-05-13T02:56:21.997Z,8.67
2018-05-13T02:58:49.527Z,8.60
2018-05-13T03:01:17.029Z,8.07
2018-05-13T03:03:44.559Z,8.80
2018-05-13T03:06:13.145Z,8.33
2018-05-13T03:08:41.415Z,9.70
2018-05-13T03:11:09.846Z,10.10
2018-05-13T03:13:37.353Z,10.30
2018-05-13T03:16:05.605Z,9.30
2018-05-13T03:18:33.090Z,9.00
2018-05-13T03:21:01.479Z,10.20
2018-05-13T03:23:28.992Z,8.70
2018-05-13T03:25:56.496Z,10.00
2018-05-13T03:28:24.034Z,10.47
2018-05-13T03:30:52.301Z,9.30
2018-05-13T03:33:20.569Z,10.73
2018-05-13T03:35:48.169Z,9.80
2018-05-13T03:38:15.771Z,10.40
2018-05-13T03:40:44.071Z,10.67
2018-05-13T03:43:12.336Z,8.87
2018-05-13T03:45:39.857Z,10.13
2018-05-13T03:48:07.357Z,10.50
2018-05-13T03:50:34.899Z,10.20
2018-05-13T03:53:02.434Z,10.27
2018-05-13T03:55:30.006Z,9.60
2018-05-13T03:57:57.520Z,9.63
2018-05-13T04:00:25.899Z,10.20
2018-05-13T04:02:54.180Z,11.97
2018-05-13T04:05:21.835Z,12.57
2018-05-13T04:11:14.854Z,10.97
2018-05-13T04:13:54.247Z,10.57
2018-05-13T04:16:21.813Z,9.90
2018-05-13T04:18:49.316Z,10.93
2018-05-13T04:21:16.822Z,9.60
2018-05-13T04:23:45.150Z,10.93
2018-05-13T04:26:12.658Z,11.20
2018-05-13T04:28:41.095Z,10.10
2018-05-13T04:31:08.650Z,10.83
2018-05-13T04:33:36.164Z,11.47
2018-05-13T04:36:03.674Z,9.97
2018-05-13T04:38:31.322Z,10.23
2018-05-13T04:40:58.836Z,10.23
2018-05-13T04:43:26.393Z,11.17
2018-05-13T04:45:54.696Z,11.60
2018-05-13T04:48:22.230Z,11.13
2018-05-13T04:50:49.737Z,11.40
2018-05-13T04:53:17.268Z,10.93
2018-05-13T04:55:45.827Z,11.50
2018-05-13T04:58:14.122Z,11.00
2018-05-13T05:00:41.660Z,11.20
2018-05-13T05:03:09.218Z,11.50
2018-05-13T05:05:37.646Z,11.67
2018-05-13T05:08:05.178Z,10.50
2018-05-13T05:10:32.716Z,10.40
2018-05-13T05:13:00.992Z,10.43
2018-05-13T05:15:28.524Z,10.63
2018-05-13T05:17:56.780Z,10.97
2018-05-13T05:20:24.292Z,11.00
2018-05-13T05:22:51.931Z,13.60
2018-05-13T05:25:20.319Z,11.80
2018-05-13T05:27:48.594Z,11.17
2018-05-13T05:30:16.890Z,11.73
2018-05-13T05:32:44.436Z,10.90
2018-05-13T05:35:11.997Z,11.90
2018-05-13T05:37:40.464Z,11.70
2018-05-13T05:40:08.767Z,10.53
2018-05-13T05:42:36.861Z,11.50
2018-05-13T05:45:04.403Z,11.93
2018-05-13T05:47:31.939Z,11.33
2018-05-13T05:50:02.753Z,11.90
2018-05-13T05:52:31.222Z,11.90
2018-05-13T05:54:58.717Z,10.90
2018-05-13T05:57:26.227Z,10.77
2018-05-13T06:00:04.413Z,9.67
2018-05-13T06:02:32.005Z,9.87
2018-05-13T06:04:59.529Z,9.50
2018-05-13T06:07:27.153Z,9.80
2018-05-13T06:09:54.695Z,9.30
2018-05-13T06:12:22.976Z,9.10
2018-05-13T06:14:51.396Z,9.13
2018-05-13T06:17:19.864Z,8.57
2018-05-13T06:19:47.479Z,9.03
2018-05-13T06:22:15.085Z,9.00
2018-05-13T06:24:42.620Z,8.50
2018-05-13T06:27:10.946Z,9.27
2018-05-13T06:29:38.477Z,8.80
2018-05-13T06:32:06.103Z,9.53
2018-05-13T06:34:33.643Z,10.47
2018-05-13T06:37:01.585Z,9.20
2018-05-13T06:39:29.359Z,8.70
2018-05-13T06:41:56.843Z,10.20
2018-05-13T06:44:24.389Z,10.30
2018-05-13T06:46:52.041Z,10.37
2018-05-13T06:49:19.644Z,9.27
2018-05-13T06:51:47.981Z,11.03
2018-05-13T06:54:15.459Z,11.97
2018-05-13T06:56:43.222Z,10.30
2018-05-13T06:59:11.124Z,10.47
2018-05-13T07:01:38.789Z,10.53
2018-05-13T07:04:06.437Z,11.10
2018-05-13T07:06:35.624Z,10.63
2018-05-13T07:11:53.467Z,12.40
2018-05-13T07:14:21.049Z,11.30
2018-05-13T07:16:49.323Z,12.50
2018-05-13T07:19:17.746Z,13.40
2018-05-13T07:21:45.348Z,12.37
2018-05-13T07:24:12.934Z,13.90
2018-05-13T07:26:40.552Z,15.83
2018-05-13T07:29:08.068Z,17.07
2018-05-13T07:31:35.816Z,17.47
2018-05-13T07:34:03.337Z,22.63
2018-05-13T07:36:30.861Z,20.40
2018-05-13T07:38:58.462Z,21.87
2018-05-13T07:41:26.760Z,21.50
2018-05-13T07:43:55.029Z,24.07
2018-05-13T07:46:23.649Z,25.90
2018-05-13T07:48:51.144Z,25.23
2018-05-13T07:51:18.689Z,24.93
2018-05-13T07:53:46.230Z,28.87
2018-05-13T07:56:13.747Z,27.03
2018-05-13T07:58:42.024Z,28.17
2018-05-13T08:01:10.293Z,27.70
2018-05-13T08:03:38.550Z,29.40
2018-05-13T08:06:06.127Z,32.80
2018-05-13T08:08:33.649Z,32.73
2018-05-13T08:11:01.198Z,30.73
2018-05-13T08:13:28.710Z,29.90
2018-05-13T08:15:56.865Z,32.17
2018-05-13T08:18:25.133Z,30.93
2018-05-13T08:20:52.702Z,32.23
2018-05-13T08:23:20.977Z,32.10
2018-05-13T08:25:49.331Z,21.37
2018-05-13T08:28:16.873Z,24.80
2018-05-13T08:30:45.203Z,27.00
2018-05-13T08:33:12.705Z,30.70
2018-05-13T08:35:40.313Z,29.40
2018-05-13T08:38:08.585Z,34.13
2018-05-13T08:40:36.853Z,27.37
2018-05-13T08:43:05.187Z,26.13
2018-05-13T08:45:32.707Z,26.03
2018-05-13T08:48:00.950Z,27.90
2018-05-13T08:50:28.745Z,31.33
2018-05-13T08:52:57.017Z,29.43
2018-05-13T08:55:25.289Z,28.13
2018-05-13T08:57:54.761Z,29.10
2018-05-13T09:00:22.291Z,39.17
2018-05-13T09:02:49.822Z,29.03
2018-05-13T09:05:18.404Z,32.17
2018-05-13T09:07:46.063Z,31.90
2018-05-13T09:10:13.582Z,31.17
2018-05-13T09:12:42.078Z,36.13
2018-05-13T09:15:10.360Z,32.70
2018-05-13T09:17:38.621Z,34.80
2018-05-13T09:20:06.926Z,34.80
2018-05-13T09:22:35.226Z,38.67
2018-05-13T09:25:02.714Z,35.07
2018-05-13T09:27:31.025Z,33.40
2018-05-13T09:29:59.433Z,32.87
2018-05-13T09:32:26.933Z,33.23
2018-05-13T09:34:54.519Z,33.13
2018-05-13T09:37:22.782Z,36.80
2018-05-13T09:39:51.057Z,30.70
2018-05-13T09:42:19.353Z,34.30
2018-05-13T09:44:47.632Z,37.70
2018-05-13T09:47:15.256Z,33.60
2018-05-13T09:49:42.779Z,35.33
2018-05-13T09:52:10.268Z,32.00
2018-05-13T09:54:37.810Z,41.40
2018-05-13T09:57:05.437Z,37.47
2018-05-13T09:59:33.700Z,44.07
2018-05-13T10:02:02.024Z,42.67
2018-05-13T10:04:32.014Z,38.93
2018-05-13T10:06:59.535Z,38.73
2018-05-13T10:09:28.945Z,37.93
2018-05-13T10:11:56.728Z,38.30
2018-05-13T10:14:24.505Z,42.03
2018-05-13T10:16:52.049Z,38.00
2018-05-13T10:19:19.593Z,45.23
2018-05-13T10:21:47.887Z,45.47
2018-05-13T10:24:15.386Z,40.70
2018-05-13T10:26:43.329Z,42.93
2018-05-13T10:29:10.865Z,45.30
2018-05-13T10:31:38.428Z,51.17
2018-05-13T10:34:05.957Z,46.83
2018-05-13T10:36:33.545Z,47.53
2018-05-13T10:39:01.058Z,47.13
2018-05-13T10:41:28.949Z,49.93
2018-05-13T10:43:57.204Z,48.30
2018-05-13T10:46:25.516Z,49.67
2018-05-13T10:48:53.826Z,49.30
2018-05-13T10:51:21.476Z,50.37
2018-05-13T10:53:49.382Z,53.67
2018-05-13T10:56:16.902Z,48.60
2018-05-13T10:58:44.422Z,53.87
2018-05-13T11:01:12.766Z,48.77
2018-05-13T11:03:40.330Z,46.17
2018-05-13T11:06:07.939Z,46.27
2018-05-13T11:08:35.451Z,42.53
2018-05-13T11:11:02.977Z,51.50
2018-05-13T11:13:30.503Z,46.40
2018-05-13T11:15:58.791Z,43.30
2018-05-13T11:18:26.328Z,46.57
2018-05-13T11:20:55.001Z,43.20
2018-05-13T11:23:24.023Z,46.53
2018-05-13T11:25:52.776Z,47.30
2018-05-13T11:28:20.349Z,46.50
2018-05-13T11:30:47.933Z,51.47
2018-05-13T11:33:15.463Z,45.60
2018-05-13T11:35:43.742Z,41.53
2018-05-13T11:38:12.037Z,48.60
2018-05-13T11:40:40.358Z,47.47
2018-05-13T11:43:07.869Z,47.07
2018-05-13T11:45:36.157Z,49.80
2018-05-13T11:48:04.545Z,48.20
2018-05-13T11:50:32.795Z,49.47
2018-05-13T11:53:00.329Z,51.37
2018-05-13T11:55:28.643Z,52.07
2018-05-13T11:57:56.157Z,52.30
2018-05-13T12:00:23.881Z,55.30
2018-05-13T12:02:51.500Z,52.80
2018-05-13T12:05:19.781Z,51.83
2018-05-13T12:07:48.089Z,50.67
2018-05-13T12:10:15.616Z,50.33
2018-05-13T12:12:43.923Z,51.57
2018-05-13T12:15:22.100Z,52.77
2018-05-13T12:17:50.381Z,49.03
2018-05-13T12:20:18.777Z,51.77
2018-05-13T12:22:47.037Z,48.07
2018-05-13T12:25:15.341Z,48.83
2018-05-13T12:27:42.843Z,49.13
2018-05-13T12:30:10.446Z,49.20
2018-05-13T12:32:38.020Z,48.60
2018-05-13T12:35:05.514Z,48.13
2018-05-13T12:37:33.024Z,45.90
2018-05-13T12:40:00.528Z,46.07
2018-05-13T12:42:28.037Z,47.60
2018-05-13T12:44:55.517Z,46.37
2018-05-13T12:47:23.038Z,47.20
2018-05-13T12:49:51.303Z,47.77
2018-05-13T12:52:19.591Z,46.67
2018-05-13T12:54:47.106Z,48.57
2018-05-13T12:57:14.633Z,46.77
2018-05-13T12:59:42.151Z,47.00
2018-05-13T13:02:10.445Z,47.50
2018-05-13T13:04:37.993Z,49.20
2018-05-13T13:07:06.697Z,48.70
2018-05-13T13:09:34.343Z,46.77
2018-05-13T13:12:01.765Z,48.40
2018-05-13T13:14:29.365Z,47.83
2018-05-13T13:16:56.915Z,46.33
2018-05-13T13:19:25.467Z,44.80
2018-05-13T13:21:54.701Z,46.70
2018-05-13T13:24:22.205Z,45.93
2018-05-13T13:26:49.789Z,45.67
2018-05-13T13:29:18.094Z,43.93
2018-05-13T13:31:45.599Z,43.90
2018-05-13T13:34:13.114Z,44.90
2018-05-13T13:36:40.667Z,42.87
2018-05-13T13:39:08.970Z,43.73
2018-05-13T13:41:36.527Z,42.70
2018-05-13T13:44:04.055Z,42.53
2018-05-13T13:46:32.762Z,44.37
2018-05-13T13:49:00.302Z,45.10
2018-05-13T13:51:29.839Z,44.20
2018-05-13T13:53:57.366Z,42.83
2018-05-13T13:56:26.674Z,40.33
2018-05-13T13:58:54.536Z,39.50
2018-05-13T14:01:22.218Z,41.17
2018-05-13T14:03:50.262Z,39.20
2018-05-13T14:06:18.775Z,41.10
2018-05-13T14:08:46.231Z,38.00
2018-05-13T14:11:14.179Z,40.57
2018-05-13T14:13:41.680Z,38.00
2018-05-13T14:16:09.417Z,37.60
2018-05-13T14:18:37.652Z,37.70
2018-05-13T14:21:05.963Z,39.30
2018-05-13T14:23:38.382Z,41.10
2018-05-13T14:26:06.264Z,38.50
2018-05-13T14:28:34.450Z,37.47
2018-05-13T14:31:02.891Z,37.10
2018-05-13T14:33:30.430Z,42.23
2018-05-13T14:35:58.249Z,41.90
2018-05-13T14:38:26.622Z,34.23
2018-05-13T14:40:55.039Z,31.57
2018-05-13T14:43:23.573Z,33.10
2018-05-13T14:45:51.842Z,34.10
2018-05-13T14:48:19.370Z,33.50
2018-05-13T14:50:46.919Z,36.07
2018-05-13T14:53:14.412Z,30.97
2018-05-13T14:55:42.011Z,30.87
2018-05-13T14:58:09.602Z,36.03
2018-05-13T15:00:37.255Z,31.43
2018-05-13T15:03:05.224Z,32.77
2018-05-13T15:05:33.685Z,34.43
2018-05-13T15:08:02.004Z,37.83
2018-05-13T15:10:29.642Z,38.90
2018-05-13T15:12:57.332Z,44.33
2018-05-13T15:15:25.016Z,43.10
2018-05-13T15:17:52.735Z,45.23
2018-05-13T15:20:20.294Z,43.93
2018-05-13T15:22:47.780Z,49.53
2018-05-13T15:25:15.334Z,43.40
2018-05-13T15:27:42.934Z,40.17
2018-05-13T15:30:11.314Z,41.77
2018-05-13T15:32:38.916Z,40.40
2018-05-13T15:35:07.153Z,40.80
2018-05-13T15:37:34.665Z,40.43
2018-05-13T15:40:02.224Z,42.03
2018-05-13T15:42:29.875Z,41.53
2018-05-13T15:44:58.702Z,40.87
2018-05-13T15:47:26.258Z,47.03
2018-05-13T15:49:54.536Z,47.20
2018-05-13T15:52:22.913Z,47.70
2018-05-13T15:54:51.253Z,49.10
2018-05-13T15:57:19.711Z,47.47
2018-05-13T15:59:47.225Z,46.23
2018-05-13T16:02:15.493Z,46.43
2018-05-13T16:04:43.797Z,56.97
2018-05-13T16:07:12.671Z,54.30
2018-05-13T16:09:40.928Z,53.00
2018-05-13T16:12:08.474Z,50.77
2018-05-13T16:14:35.965Z,53.23
2018-05-13T16:17:04.250Z,49.70
2018-05-13T16:19:32.944Z,50.93
2018-05-13T16:22:00.504Z,51.23
2018-05-13T16:24:28.031Z,52.93
2018-05-13T16:26:55.552Z,50.90
2018-05-13T16:29:23.147Z,54.27
2018-05-13T16:31:50.687Z,51.40
2018-05-13T16:34:18.201Z,51.00
2018-05-13T16:36:45.717Z,49.83
2018-05-13T16:39:13.232Z,47.00
2018-05-13T16:41:40.876Z,38.27
2018-05-13T16:44:08.822Z,36.70
2018-05-13T16:46:37.184Z,36.10
2018-05-13T16:49:04.813Z,37.37
2018-05-13T16:51:33.143Z,41.03
2018-05-13T16:54:02.112Z,35.30
2018-05-13T16:56:30.501Z,38.30
2018-05-13T16:58:59.867Z,37.33
2018-05-13T17:01:27.360Z,33.07
2018-05-13T17:03:55.880Z,36.27
2018-05-13T17:06:23.393Z,30.63
2018-05-13T17:08:50.994Z,39.43
2018-05-13T17:11:18.639Z,38.87
2018-05-13T17:13:46.191Z,37.27
2018-05-13T17:16:14.442Z,37.03
2018-05-13T17:18:42.067Z,39.50
2018-05-13T17:21:09.693Z,37.07
2018-05-13T17:23:38.135Z,35.60
2018-05-13T17:26:05.595Z,40.50
2018-05-13T17:28:33.116Z,39.73
2018-05-13T17:31:00.722Z,40.97
2018-05-13T17:33:28.247Z,40.27
2018-05-13T17:35:55.732Z,40.17
2018-05-13T17:38:24.987Z,38.53
2018-05-13T17:40:54.023Z,45.90
2018-05-13T17:43:22.569Z,42.60
2018-05-13T17:45:50.183Z,48.87
2018-05-13T17:48:18.346Z,48.83
2018-05-13T17:50:46.670Z,56.67
2018-05-13T17:53:14.426Z,54.40
2018-05-13T17:55:42.028Z,53.53
2018-05-13T17:58:11.091Z,57.00
2018-05-13T18:00:38.686Z,54.47
2018-05-13T18:03:08.606Z,53.30
2018-05-13T18:05:38.252Z,52.67
2018-05-13T18:08:06.595Z,52.30
2018-05-13T18:10:35.848Z,56.17
2018-05-13T18:13:13.294Z,53.73
2018-05-13T18:15:41.586Z,52.27
2018-05-13T18:18:11.816Z,58.17
2018-05-13T18:20:40.108Z,52.93
2018-05-13T18:23:08.282Z,57.00
2018-05-13T18:25:35.819Z,57.17
2018-05-13T18:28:03.316Z,54.80
2018-05-13T18:30:30.812Z,60.27
2018-05-13T18:33:00.863Z,53.27
2018-05-13T18:35:28.569Z,61.97
2018-05-13T18:37:56.205Z,64.57
2018-05-13T18:40:23.805Z,53.60
2018-05-13T18:42:52.373Z,58.17
2018-05-13T18:45:19.896Z,58.20
2018-05-13T18:47:47.393Z,62.17
2018-05-13T18:50:14.934Z,64.57
2018-05-13T18:52:42.438Z,59.17
2018-05-13T18:55:11.930Z,60.40
2018-05-13T18:57:39.511Z,81.97
2018-05-13T19:00:07.066Z,60.57
2018-05-13T19:02:36.054Z,90.50
2018-05-13T19:05:04.323Z,84.13
2018-05-13T19:07:32.611Z,74.87
2018-05-13T19:10:00.250Z,71.40
2018-05-13T19:12:27.838Z,66.60
2018-05-13T19:14:55.292Z,69.17
2018-05-13T19:17:32.766Z,59.93
2018-05-13T19:20:01.166Z,56.00
2018-05-13T19:22:29.497Z,56.43
2018-05-13T19:24:57.444Z,68.57
2018-05-13T19:27:25.106Z,55.10
2018-05-13T19:30:03.794Z,55.20
2018-05-13T19:32:32.107Z,52.43
2018-05-13T19:35:00.290Z,60.03
2018-05-13T19:37:29.622Z,54.23
2018-05-13T19:39:57.929Z,51.63
2018-05-13T19:42:25.562Z,55.83
2018-05-13T19:44:53.865Z,44.47
2018-05-13T19:47:21.385Z,55.87
2018-05-13T19:49:48.953Z,58.40
2018-05-13T19:52:17.232Z,57.67
2018-05-13T19:54:45.604Z,57.27
2018-05-13T19:57:13.938Z,61.87
2018-05-13T19:59:41.440Z,65.23
2018-05-13T20:02:09.807Z,68.67
2018-05-13T20:04:37.336Z,68.33
2018-05-13T20:07:04.862Z,87.87
2018-05-13T20:09:33.201Z,84.93
2018-05-13T20:12:02.278Z,80.53
2018-05-13T20:14:31.482Z,81.90
2018-05-13T20:16:59.055Z,87.07
2018-05-13T20:19:26.602Z,81.03
2018-05-13T20:21:54.249Z,80.80
2018-05-13T20:24:21.837Z,72.70
2018-05-13T20:26:49.417Z,73.80
2018-05-13T20:29:17.760Z,75.20
2018-05-13T20:31:45.304Z,77.13
2018-05-13T20:34:13.131Z,78.13
2018-05-13T20:36:40.748Z,76.60
2018-05-13T20:39:08.251Z,74.87
2018-05-13T20:41:35.869Z,72.60
2018-05-13T20:44:03.769Z,78.73
2018-05-13T20:46:31.316Z,76.27
2018-05-13T20:48:59.611Z,78.70
2018-05-13T20:51:28.140Z,73.17
2018-05-13T20:53:55.639Z,71.97
2018-05-13T20:56:23.957Z,76.70
2018-05-13T20:58:51.525Z,76.37
2018-05-13T21:01:28.176Z,80.50
2018-05-13T21:03:55.657Z,80.53
2018-05-13T21:06:23.225Z,75.77
2018-05-13T21:08:50.768Z,76.77
2018-05-13T21:11:18.296Z,73.70
2018-05-13T21:13:46.233Z,76.53
2018-05-13T21:16:15.586Z,78.30
2018-05-13T21:18:43.080Z,81.10
2018-05-13T21:21:10.671Z,80.67
2018-05-13T21:23:38.360Z,79.90
2018-05-13T21:26:05.853Z,77.93
2018-05-13T21:28:33.386Z,74.40
2018-05-13T21:31:01.403Z,72.47
2018-05-13T21:33:29.692Z,74.80
2018-05-13T21:35:58.064Z,77.13
2018-05-13T21:38:25.714Z,75.47
2018-05-13T21:40:54.202Z,73.53
2018-05-13T21:43:22.580Z,77.00
2018-05-13T21:45:50.924Z,77.50
2018-05-13T21:48:19.121Z,74.80
2018-05-13T21:50:46.725Z,74.70
2018-05-13T21:53:15.312Z,78.37
2018-05-13T21:55:43.073Z,76.67
2018-05-13T21:58:10.642Z,72.43
2018-05-13T22:00:38.224Z,77.60
2018-05-13T22:03:05.810Z,73.27
2018-05-13T22:05:33.378Z,72.90
2018-05-13T22:08:01.743Z,72.90
2018-05-13T22:10:29.281Z,70.00
2018-05-13T22:12:57.217Z,72.57
2018-05-13T22:15:24.705Z,68.93
2018-05-13T22:17:52.220Z,66.30
2018-05-13T22:20:19.709Z,69.63
2018-05-13T22:22:47.287Z,68.50
2018-05-13T22:25:14.826Z,68.37
2018-05-13T22:27:43.102Z,68.60
2018-05-13T22:30:10.649Z,70.20
2018-05-13T22:32:38.137Z,70.63
2018-05-13T22:35:05.742Z,64.73
2018-05-13T22:37:33.259Z,68.50
2018-05-13T22:40:00.824Z,66.60
2018-05-13T22:42:28.408Z,68.00
2018-05-13T22:44:56.740Z,70.80
2018-05-13T22:47:25.018Z,72.03
2018-05-13T22:49:53.308Z,69.57
2018-05-13T22:52:20.939Z,69.10
2018-05-13T22:54:49.176Z,70.90
2018-05-13T22:57:17.464Z,70.70
2018-05-13T22:59:44.981Z,68.87
2018-05-13T23:02:12.776Z,69.57
2018-05-13T23:04:41.156Z,73.77
2018-05-13T23:07:09.439Z,71.50
2018-05-13T23:09:36.961Z,67.70
2018-05-13T23:12:04.549Z,72.27
2018-05-13T23:14:32.856Z,70.10
2018-05-13T23:17:00.390Z,76.03
2018-05-13T23:19:28.775Z,74.40
2018-05-13T23:21:57.049Z,75.10
2018-05-13T23:24:25.334Z,81.23
2018-05-13T23:26:52.856Z,76.27
2018-05-13T23:29:21.139Z,80.37
2018-05-13T23:31:48.637Z,76.67
2018-05-13T23:34:16.295Z,75.27
2018-05-13T23:36:43.829Z,81.83
2018-05-13T23:39:11.349Z,79.30
2018-05-13T23:41:39.033Z,92.50
2018-05-13T23:44:07.241Z,84.27
2018-05-13T23:46:34.785Z,86.40
2018-05-13T23:49:03.064Z,85.07
2018-05-13T23:51:30.633Z,85.10
2018-05-13T23:53:58.091Z,82.67
2018-05-13T23:56:25.589Z,87.13
2018-05-13T23:58:53.116Z,83.07
